Time;durP1;ratioP1;P1;durP2;ratioP2;P2;SDS_P1;SDS_P2;PMS_P1;PMS_P2;Temp;Humidity;BMP_temperature;BMP_pressure;BME280_temperature;BME280_humidity;BME280_pressure;Samples;Min_cycle;Max_cycle;Signal;HPM_P1;HPM_P2
2021/09/21 00:02:17;;;;;;;0.65;0.65;;;22.90;52.90;;;;;;6294212;28;20029;-71
2021/09/21 00:05:18;;;;;;;0.60;0.60;;;22.90;52.90;;;;;;6294133;28;20096;-70
2021/09/21 00:08:18;;;;;;;0.70;0.70;;;22.90;52.90;;;;;;6294177;28;20071;-70
2021/09/21 00:11:19;;;;;;;1.02;0.73;;;22.90;52.90;;;;;;6293395;28;20087;-70
2021/09/21 00:14:20;;;;;;;1.13;0.90;;;22.90;52.90;;;;;;6288258;28;20150;-70
2021/09/21 00:17:20;;;;;;;0.75;0.70;;;22.90;52.90;;;;;;6293891;28;20044;-70
2021/09/21 00:20:21;;;;;;;0.70;0.60;;;22.90;52.90;;;;;;6293922;28;20024;-70
2021/09/21 00:23:21;;;;;;;0.70;0.60;;;22.90;52.90;;;;;;6293306;28;20036;-70
2021/09/21 00:26:22;;;;;;;1.52;0.95;;;22.90;52.90;;;;;;6293985;28;20029;-70
2021/09/21 00:29:23;;;;;;;0.90;0.80;;;22.90;53.00;;;;;;6293486;28;20225;-71
2021/09/21 00:32:26;;;;;;;0.88;0.63;;;22.90;53.00;;;;;;6293289;28;20084;-70
2021/09/21 00:35:28;;;;;;;0.85;0.65;;;22.90;53.00;;;;;;6293483;28;20380;-70
2021/09/21 00:38:28;;;;;;;0.90;0.65;;;22.90;53.00;;;;;;6293382;28;20067;-69
2021/09/21 00:41:29;;;;;;;0.70;0.70;;;22.90;53.00;;;;;;6292418;28;20036;-70
2021/09/21 00:44:30;;;;;;;0.55;0.50;;;22.90;53.10;;;;;;6293693;28;20428;-70
2021/09/21 00:47:31;;;;;;;1.02;0.73;;;22.90;53.10;;;;;;6291258;28;20020;-70
2021/09/21 00:50:32;;;;;;;0.60;0.60;;;22.90;53.10;;;;;;6293018;28;20032;-70
2021/09/21 00:53:32;;;;;;;0.93;0.80;;;22.90;53.10;;;;;;6293289;28;20494;-70
2021/09/21 00:56:33;;;;;;;0.75;0.65;;;22.90;53.10;;;;;;6292983;28;20024;-70
2021/09/21 00:59:34;;;;;;;0.65;0.65;;;22.90;53.10;;;;;;6293183;28;20059;-70
2021/09/21 01:02:35;;;;;;;0.80;0.60;;;22.90;53.10;;;;;;6292551;28;20040;-70
2021/09/21 01:05:36;;;;;;;1.17;0.80;;;22.90;53.20;;;;;;6292748;28;20109;-70
2021/09/21 01:08:40;;;;;;;0.50;0.50;;;22.90;53.30;;;;;;6292755;28;20036;-70
2021/09/21 01:11:43;;;;;;;0.60;0.60;;;22.90;53.20;;;;;;6292638;28;20106;-70
2021/09/21 01:14:44;;;;;;;0.90;0.77;;;22.90;53.20;;;;;;6278126;28;20440;-70
2021/09/21 01:17:45;;;;;;;0.70;0.70;;;22.90;53.30;;;;;;6292660;28;20298;-70
2021/09/21 01:20:45;;;;;;;0.68;0.50;;;22.90;53.30;;;;;;6292088;28;20029;-70
2021/09/21 01:23:50;;;;;;;0.75;0.70;;;22.90;53.30;;;;;;6292919;28;20020;-70
2021/09/21 01:26:50;;;;;;;0.70;0.65;;;22.90;53.30;;;;;;6292540;28;20069;-70
2021/09/21 01:29:51;;;;;;;0.85;0.60;;;22.90;53.30;;;;;;6290798;28;20032;-71
2021/09/21 01:32:51;;;;;;;0.70;0.70;;;22.90;53.30;;;;;;6291904;28;20277;-70
2021/09/21 01:35:52;;;;;;;0.70;0.70;;;22.90;53.30;;;;;;6292658;28;20032;-70
2021/09/21 01:38:53;;;;;;;0.93;0.65;;;22.90;53.30;;;;;;6292437;28;20029;-70
2021/09/21 01:41:53;;;;;;;0.90;0.63;;;22.90;53.30;;;;;;6290564;28;20464;-70
2021/09/21 01:44:54;;;;;;;1.20;0.60;;;22.90;53.30;;;;;;6292091;28;20534;-70
2021/09/21 01:47:55;;;;;;;0.85;0.70;;;22.90;53.30;;;;;;6291783;28;20123;-70
2021/09/21 01:51:08;;;;;;;0.70;0.70;;;22.90;53.30;;;;;;6292318;28;20155;-70
2021/09/21 02:00:32;;;;;;;0.68;0.60;;;22.90;53.40;;;;;;6297046;28;20032;-70
2021/09/21 02:03:33;;;;;;;0.50;0.50;;;22.90;53.40;;;;;;6296839;28;20039;-69
2021/09/21 02:06:37;;;;;;;0.60;0.60;;;22.90;53.40;;;;;;6296940;28;20040;-70
2021/09/21 02:09:37;;;;;;;0.60;0.60;;;22.90;53.40;;;;;;6296839;28;20036;-70
2021/09/21 02:12:37;;;;;;;1.52;0.60;;;22.90;53.40;;;;;;6296618;28;20441;-70
2021/09/21 02:15:38;;;;;;;0.80;0.80;;;22.90;53.40;;;;;;6296814;28;20063;-70
2021/09/21 02:18:38;;;;;;;0.60;0.60;;;22.90;53.40;;;;;;6296250;28;20038;-70
2021/09/21 02:21:39;;;;;;;0.73;0.63;;;22.90;53.40;;;;;;6296618;28;20040;-70
2021/09/21 02:24:40;;;;;;;0.43;0.43;;;22.90;53.40;;;;;;6296858;28;20048;-70
2021/09/21 02:27:40;;;;;;;0.63;0.50;;;22.90;53.50;;;;;;6296298;28;20021;-70
2021/09/21 02:30:41;;;;;;;0.60;0.60;;;22.90;53.50;;;;;;6296541;28;20028;-70
2021/09/21 02:33:42;;;;;;;0.70;0.70;;;22.90;53.50;;;;;;6295845;28;20039;-70
2021/09/21 02:36:43;;;;;;;0.40;0.40;;;22.90;53.50;;;;;;6296351;28;20482;-70
2021/09/21 02:39:44;;;;;;;0.70;0.70;;;22.90;53.50;;;;;;6295635;28;20497;-70
2021/09/21 02:42:45;;;;;;;0.68;0.57;;;22.90;53.50;;;;;;6295909;28;20049;-70
2021/09/21 02:45:45;;;;;;;1.33;0.80;;;22.90;53.50;;;;;;6296036;28;20092;-70
2021/09/21 02:48:46;;;;;;;0.50;0.50;;;22.80;53.50;;;;;;6295781;28;20028;-70
2021/09/21 02:51:46;;;;;;;0.60;0.60;;;22.90;53.60;;;;;;6295662;28;20074;-70
2021/09/21 02:54:46;;;;;;;0.52;0.52;;;22.90;53.50;;;;;;6295645;28;20402;-70
2021/09/21 02:57:47;;;;;;;0.60;0.50;;;22.90;53.60;;;;;;6295815;28;20025;-70
2021/09/21 03:00:51;;;;;;;0.77;0.60;;;22.90;53.60;;;;;;6295765;28;20432;-70
2021/09/21 03:03:56;;;;;;;0.60;0.60;;;22.90;53.60;;;;;;6294962;28;20098;-70
2021/09/21 03:07:04;;;;;;;0.47;0.47;;;22.90;53.70;;;;;;6295911;28;20456;-70
2021/09/21 03:10:17;;;;;;;0.80;0.70;;;22.90;53.70;;;;;;6295232;28;20127;-70
2021/09/21 03:19:37;;;;;;;0.50;0.50;;;22.90;53.70;;;;;;6279466;28;20413;-70
2021/09/21 03:22:38;;;;;;;0.50;0.50;;;22.90;53.60;;;;;;6295756;28;20090;-71
2021/09/21 03:25:38;;;;;;;0.70;0.50;;;22.90;53.70;;;;;;6295179;28;20440;-70
2021/09/21 03:28:39;;;;;;;0.82;0.50;;;22.90;53.70;;;;;;6295170;28;20068;-70
2021/09/21 03:31:39;;;;;;;0.60;0.50;;;22.90;53.70;;;;;;6295010;28;20111;-70
2021/09/21 03:34:40;;;;;;;0.60;0.60;;;22.90;53.70;;;;;;6295274;28;20058;-70
2021/09/21 03:37:41;;;;;;;0.55;0.55;;;22.80;53.60;;;;;;6295004;28;20034;-70
2021/09/21 03:40:41;;;;;;;0.50;0.50;;;22.90;53.80;;;;;;6294715;28;20028;-70
2021/09/21 03:43:42;;;;;;;0.45;0.45;;;22.90;53.80;;;;;;6294443;28;20438;-70
2021/09/21 03:46:43;;;;;;;0.60;0.60;;;22.90;53.70;;;;;;6295397;28;20100;-70
2021/09/21 03:49:43;;;;;;;0.73;0.52;;;22.80;53.70;;;;;;6294259;28;20028;-70
2021/09/21 03:52:44;;;;;;;0.50;0.50;;;22.80;53.70;;;;;;6294600;28;20033;-70
2021/09/21 03:55:44;;;;;;;0.52;0.50;;;22.90;53.80;;;;;;6294553;28;20037;-70
2021/09/21 03:58:45;;;;;;;0.60;0.50;;;22.80;53.70;;;;;;6294193;28;20024;-70
2021/09/21 04:01:45;;;;;;;0.60;0.50;;;22.80;53.70;;;;;;6293837;28;20321;-69
2021/09/21 04:04:46;;;;;;;0.30;0.30;;;22.90;53.80;;;;;;6294778;28;20031;-70
2021/09/21 04:07:50;;;;;;;0.50;0.50;;;22.80;53.70;;;;;;6293528;28;20107;-70
2021/09/21 04:10:50;;;;;;;0.60;0.60;;;22.80;53.70;;;;;;6293894;28;20070;-70
2021/09/21 04:13:51;;;;;;;1.33;0.47;;;22.80;53.70;;;;;;6290894;28;20052;-70
2021/09/21 04:16:51;;;;;;;0.50;0.50;;;22.90;53.80;;;;;;6286414;28;20054;-70
2021/09/21 04:19:52;;;;;;;0.43;0.43;;;22.90;53.90;;;;;;6293117;28;20407;-70
2021/09/21 04:22:53;;;;;;;0.70;0.65;;;22.80;53.80;;;;;;6294069;28;20040;-70
2021/09/21 04:25:53;;;;;;;0.50;0.50;;;22.80;53.80;;;;;;6294353;28;20384;-70
2021/09/21 04:28:54;;;;;;;0.80;0.70;;;22.90;53.90;;;;;;6293449;28;20558;-70
2021/09/21 04:31:57;;;;;;;0.47;0.43;;;22.90;53.90;;;;;;6292871;28;20032;-70
2021/09/21 04:34:57;;;;;;;0.45;0.45;;;22.80;53.80;;;;;;6293575;28;20133;-70
2021/09/21 04:37:58;;;;;;;0.50;0.50;;;22.80;53.80;;;;;;6293435;28;20025;-70
2021/09/21 04:40:58;;;;;;;0.40;0.40;;;22.90;53.90;;;;;;6293072;28;20034;-70
2021/09/21 04:43:59;;;;;;;0.70;0.50;;;22.80;53.80;;;;;;6293281;28;20498;-70
2021/09/21 04:46:59;;;;;;;0.65;0.60;;;22.90;53.90;;;;;;6293284;28;20029;-70
2021/09/21 04:50:00;;;;;;;0.50;0.50;;;22.90;53.90;;;;;;6292813;28;20220;-70
2021/09/21 04:53:00;;;;;;;0.30;0.30;;;22.90;53.90;;;;;;6293478;28;20032;-70
2021/09/21 04:56:01;;;;;;;0.63;0.50;;;22.80;53.80;;;;;;6293389;28;20435;-71
2021/09/21 04:59:02;;;;;;;1.17;0.52;;;22.90;53.90;;;;;;6292781;28;20035;-70
2021/09/21 05:02:02;;;;;;;0.45;0.45;;;22.90;53.90;;;;;;6280935;28;20086;-70
2021/09/21 05:05:03;;;;;;;0.50;0.50;;;22.90;54.00;;;;;;6268613;28;20032;-70
2021/09/21 05:08:04;;;;;;;0.52;0.52;;;22.80;53.90;;;;;;6287793;28;20055;-70
2021/09/21 05:11:05;;;;;;;0.47;0.47;;;22.80;53.90;;;;;;6292878;28;20036;-70
2021/09/21 05:14:05;;;;;;;1.02;0.70;;;22.80;53.90;;;;;;6290283;28;20052;-70
2021/09/21 05:17:07;;;;;;;0.50;0.50;;;22.90;53.90;;;;;;6280456;28;21881;-70
2021/09/21 05:20:08;;;;;;;0.40;0.40;;;22.90;54.00;;;;;;6283060;28;20458;-70
2021/09/21 05:23:09;;;;;;;0.80;0.63;;;22.80;54.30;;;;;;6288475;28;20043;-70
2021/09/21 05:26:10;;;;;;;0.63;0.60;;;22.80;54.30;;;;;;6290722;28;20511;-70
2021/09/21 05:29:10;;;;;;;3.28;1.20;;;22.80;54.30;;;;;;6290187;28;20031;-70
2021/09/21 05:32:11;;;;;;;1.58;1.10;;;22.80;54.00;;;;;;6290663;28;20538;-70
2021/09/21 05:35:12;;;;;;;7.70;1.95;;;22.80;53.60;;;;;;6290670;28;20475;-70
2021/09/21 05:38:12;;;;;;;4.55;2.13;;;22.80;53.20;;;;;;6290453;28;20032;-70
2021/09/21 05:41:13;;;;;;;11.40;2.08;;;22.80;52.30;;;;;;6290149;28;20090;-69
2021/09/21 05:44:13;;;;;;;3.25;1.58;;;22.80;52.70;;;;;;6291095;28;20028;-70
2021/09/21 05:47:14;;;;;;;4.55;1.98;;;22.80;53.60;;;;;;6291101;28;20021;-70
2021/09/21 05:50:15;;;;;;;3.20;1.80;;;22.80;53.60;;;;;;6273982;28;20043;-70
2021/09/21 05:53:16;;;;;;;3.10;1.92;;;22.80;53.60;;;;;;6276563;28;20063;-69
2021/09/21 05:56:16;;;;;;;9.05;2.15;;;22.80;53.30;;;;;;6289208;28;20079;-70
2021/09/21 05:59:17;;;;;;;5.72;2.05;;;22.80;53.10;;;;;;6286437;28;20036;-70
2021/09/21 06:02:17;;;;;;;2.97;2.10;;;22.80;53.30;;;;;;6276520;28;20044;-70
2021/09/21 06:05:18;;;;;;;4.32;2.15;;;22.80;53.20;;;;;;6290692;28;20077;-70
2021/09/21 06:08:18;;;;;;;5.90;2.28;;;22.80;52.90;;;;;;6289829;28;20131;-70
2021/09/21 06:11:28;;;;;;;4.35;2.25;;;22.80;53.00;;;;;;6289511;28;20035;-70
2021/09/21 06:14:28;;;;;;;5.22;2.40;;;22.80;52.90;;;;;;6274490;28;20071;-70
2021/09/21 06:17:29;;;;;;;7.20;2.20;;;22.80;52.80;;;;;;6266478;28;20059;-70
2021/09/21 06:20:30;;;;;;;5.43;2.55;;;22.80;52.50;;;;;;6289041;28;20544;-70
2021/09/21 06:23:30;;;;;;;13.05;2.83;;;22.80;52.70;;;;;;6290103;28;20028;-70
2021/09/21 06:26:32;;;;;;;7.55;2.30;;;22.80;52.80;;;;;;6288730;28;20024;-70
2021/09/21 06:29:32;;;;;;;4.97;2.30;;;22.80;52.80;;;;;;6286867;28;20035;-70
2021/09/21 06:32:33;;;;;;;4.63;2.53;;;22.80;52.80;;;;;;6290336;28;20028;-70
2021/09/21 06:35:33;;;;;;;6.57;2.10;;;22.80;52.90;;;;;;6291356;28;20111;-70
2021/09/21 06:38:37;;;;;;;3.33;1.67;;;22.80;53.00;;;;;;6292178;28;20033;-70
2021/09/21 06:41:37;;;;;;;4.18;2.10;;;22.80;52.90;;;;;;6294549;28;20395;-70
2021/09/21 06:44:38;;;;;;;9.75;2.22;;;22.80;53.10;;;;;;6295387;28;20032;-70
2021/09/21 06:47:39;;;;;;;6.10;2.20;;;22.80;53.20;;;;;;6295355;28;20021;-70
2021/09/21 06:50:40;;;;;;;3.85;1.70;;;22.80;53.50;;;;;;6295181;28;20119;-70
2021/09/21 06:53:40;;;;;;;5.78;2.22;;;22.80;53.40;;;;;;6292645;28;20013;-70
2021/09/21 06:56:41;;;;;;;3.83;1.90;;;22.80;53.20;;;;;;6294451;28;20020;-71
2021/09/21 06:59:42;;;;;;;4.57;2.03;;;22.80;53.20;;;;;;6294167;28;20070;-70
2021/09/21 07:02:46;;;;;;;6.30;1.80;;;22.80;53.20;;;;;;6294899;28;20071;-70
2021/09/21 07:05:47;;;;;;;3.37;1.70;;;22.80;53.20;;;;;;6294606;28;20438;-70
2021/09/21 07:08:48;;;;;;;3.33;1.67;;;22.80;53.20;;;;;;6293860;28;20060;-70
2021/09/21 07:11:48;;;;;;;2.45;1.83;;;22.80;53.20;;;;;;6276060;28;20036;-70
2021/09/21 07:14:49;;;;;;;3.50;1.88;;;22.80;53.20;;;;;;6288950;28;20021;-70
2021/09/21 07:17:51;;;;;;;3.92;1.58;;;22.80;53.20;;;;;;6293234;28;20159;-70
2021/09/21 07:20:52;;;;;;;2.67;1.70;;;22.80;53.20;;;;;;6294057;28;20032;-70
2021/09/21 07:23:52;;;;;;;4.60;1.92;;;22.80;53.20;;;;;;6294070;28;20024;-70
2021/09/21 07:26:53;;;;;;;2.78;1.60;;;22.80;53.20;;;;;;6293929;28;20439;-70
2021/09/21 07:29:54;;;;;;;2.85;1.67;;;22.80;53.20;;;;;;6293220;28;20066;-70
2021/09/21 07:32:54;;;;;;;3.53;1.67;;;22.80;53.30;;;;;;6293569;28;20035;-69
2021/09/21 07:35:55;;;;;;;3.20;1.48;;;22.80;53.30;;;;;;6294308;28;20033;-70
2021/09/21 07:38:55;;;;;;;3.10;1.63;;;22.80;53.30;;;;;;6294128;28;20039;-70
2021/09/21 07:41:56;;;;;;;2.42;1.60;;;22.80;53.30;;;;;;6293701;28;20470;-70
2021/09/21 07:44:56;;;;;;;5.35;1.55;;;22.80;53.40;;;;;;6293942;28;20119;-70
2021/09/21 07:47:57;;;;;;;2.30;1.58;;;22.80;53.40;;;;;;6293595;28;20056;-71
2021/09/21 07:50:57;;;;;;;5.05;2.30;;;22.80;53.60;;;;;;6292229;28;20063;-71
2021/09/21 07:53:58;;;;;;;8.23;1.38;;;22.90;53.50;;;;;;6294327;28;20141;-70
2021/09/21 07:56:58;;;;;;;7.18;1.80;;;22.90;53.50;;;;;;6294011;28;20027;-71
2021/09/21 07:59:59;;;;;;;1.90;1.20;;;22.90;53.50;;;;;;6292250;28;20032;-71
2021/09/21 08:02:59;;;;;;;4.50;1.55;;;22.90;53.60;;;;;;6292675;28;20036;-71
2021/09/21 08:06:00;;;;;;;14.75;1.67;;;22.90;53.70;;;;;;6293456;28;20025;-71
2021/09/21 08:09:00;;;;;;;2.42;1.35;;;22.90;53.90;;;;;;6292690;28;20052;-71
2021/09/21 08:12:01;;;;;;;6.72;1.38;;;22.90;53.90;;;;;;6286584;28;20029;-72
2021/09/21 08:15:02;;;;;;;4.72;1.60;;;23.00;54.00;;;;;;6280844;28;20648;-71
2021/09/21 08:18:03;;;;;;;7.50;1.73;;;23.00;53.90;;;;;;6288101;28;20032;-71
2021/09/21 08:21:03;;;;;;;8.15;1.98;;;22.90;52.70;;;;;;6292627;28;20021;-71
2021/09/21 08:24:05;;;;;;;18.15;2.20;;;22.90;52.50;;;;;;6292793;28;20024;-71
2021/09/21 08:27:06;;;;;;;7.80;2.20;;;22.90;52.80;;;;;;6292258;28;20029;-71
2021/09/21 08:30:07;;;;;;;5.22;1.90;;;22.90;52.40;;;;;;6291827;28;20387;-71
2021/09/21 08:33:08;;;;;;;7.68;2.08;;;22.90;52.40;;;;;;6292060;28;20170;-70
2021/09/21 08:36:08;;;;;;;4.78;1.70;;;22.90;52.40;;;;;;6290754;28;20034;-71
2021/09/21 08:39:09;;;;;;;7.13;2.00;;;22.90;53.00;;;;;;6292456;28;20025;-71
2021/09/21 08:42:10;;;;;;;6.45;2.10;;;22.80;53.80;;;;;;6292983;28;20032;-71
2021/09/21 08:45:11;;;;;;;9.75;2.00;;;22.80;53.10;;;;;;6268769;28;20036;-71
2021/09/21 08:48:12;;;;;;;7.47;2.55;;;22.80;53.10;;;;;;6284284;28;20395;-71
2021/09/21 08:51:12;;;;;;;5.38;2.30;;;22.80;52.60;;;;;;6292540;28;20031;-72
2021/09/21 08:54:13;;;;;;;7.03;2.40;;;22.80;51.50;;;;;;6292323;28;20055;-72
2021/09/21 08:57:15;;;;;;;11.43;3.90;;;22.80;51.10;;;;;;6292834;28;20364;-71
2021/09/21 09:00:42;;;;;;;8.95;3.97;;;22.80;50.90;;;;;;6292253;28;20025;-71
2021/09/21 09:03:56;;;;;;;19.80;6.03;;;22.90;51.20;;;;;;6289007;28;20098;-71
2021/09/21 09:06:58;;;;;;;13.35;5.93;;;22.80;51.20;;;;;;6292587;28;20028;-71
2021/09/21 09:10:06;;;;;;;20.88;7.78;;;22.80;51.40;;;;;;6291200;28;20044;-71
2021/09/21 09:13:18;;;;;;;28.10;10.00;;;22.80;51.50;;;;;;6290389;28;20491;-71
2021/09/21 09:16:22;;;;;;;25.75;10.45;;;22.80;51.60;;;;;;6268861;28;20557;-71
2021/09/21 09:19:30;;;;;;;28.77;11.85;;;22.80;51.80;;;;;;6289535;28;20324;-71
2021/09/21 09:22:31;;;;;;;33.30;12.70;;;22.80;51.90;;;;;;6291460;28;20040;-71
2021/09/21 09:25:31;;;;;;;35.13;13.20;;;22.80;51.90;;;;;;6292082;28;20063;-71
2021/09/21 09:28:35;;;;;;;36.20;15.05;;;22.80;52.00;;;;;;6291216;28;20418;-71
2021/09/21 09:31:40;;;;;;;36.72;14.05;;;22.90;52.20;;;;;;6291674;28;20021;-71
2021/09/21 09:34:41;;;;;;;37.25;15.40;;;22.90;52.30;;;;;;6291787;28;20081;-71
2021/09/21 09:37:42;;;;;;;39.45;15.88;;;22.80;52.40;;;;;;6291404;28;20044;-71
2021/09/21 09:40:47;;;;;;;43.60;15.88;;;22.80;52.40;;;;;;6291729;28;20107;-71
2021/09/21 09:43:47;;;;;;;36.13;15.98;;;22.90;52.60;;;;;;6292088;28;20064;-71
2021/09/21 09:47:03;;;;;;;42.40;16.65;;;22.90;52.70;;;;;;6292234;28;20069;-71
2021/09/21 09:50:11;;;;;;;48.00;17.67;;;22.90;52.90;;;;;;6290713;28;20107;-71
2021/09/21 09:53:11;;;;;;;45.08;16.25;;;22.90;52.90;;;;;;6291722;28;20048;-71
2021/09/21 09:56:12;;;;;;;35.67;15.32;;;22.90;52.10;;;;;;6284020;28;20372;-71
2021/09/21 09:59:15;;;;;;;35.50;15.27;;;22.90;51.80;;;;;;6289260;28;20048;-71
2021/09/21 10:02:15;;;;;;;26.73;11.43;;;22.80;51.50;;;;;;6291633;28;20098;-71
2021/09/21 10:05:16;;;;;;;29.33;11.95;;;22.90;53.00;;;;;;6291420;28;20036;-71
2021/09/21 10:08:17;;;;;;;31.10;12.65;;;22.80;52.70;;;;;;6289028;28;20076;-71
2021/09/21 10:11:18;;;;;;;28.67;10.25;;;22.80;52.60;;;;;;6277592;28;20033;-71
2021/09/21 10:14:20;;;;;;;20.70;10.20;;;22.80;51.80;;;;;;6281019;28;20033;-71
2021/09/21 10:17:24;;;;;;;20.92;8.77;;;22.80;51.70;;;;;;6287521;28;20104;-71
2021/09/21 10:20:37;;;;;;;16.10;7.45;;;22.80;51.20;;;;;;6288643;28;20115;-71
2021/09/21 10:23:42;;;;;;;18.60;6.88;;;22.80;50.90;;;;;;6297817;28;20131;-70
2021/09/21 10:26:45;;;;;;;16.95;6.47;;;22.80;50.50;;;;;;6298548;28;20077;-71
2021/09/21 10:30:07;;;;;;;15.43;7.35;;;22.80;50.40;;;;;;6297280;28;20451;-71
2021/09/21 10:33:16;;;;;;;17.75;7.05;;;22.80;50.40;;;;;;6297817;28;20044;-71
2021/09/21 10:36:32;;;;;;;14.88;6.32;;;22.80;50.40;;;;;;6297579;28;20043;-71
2021/09/21 10:39:33;;;;;;;12.25;5.90;;;22.80;50.60;;;;;;6295324;28;20029;-71
2021/09/21 10:42:35;;;;;;;13.05;6.07;;;22.80;50.70;;;;;;6297687;28;20059;-71
2021/09/21 10:45:35;;;;;;;11.23;5.53;;;22.80;50.80;;;;;;6297115;28;20043;-71
2021/09/21 10:48:38;;;;;;;12.00;5.20;;;22.80;50.80;;;;;;6297353;28;20369;-71
2021/09/21 10:51:47;;;;;;;12.13;5.85;;;22.90;50.90;;;;;;6296497;28;20095;-71
2021/09/21 10:54:56;;;;;;;14.43;5.53;;;22.80;50.80;;;;;;6294808;28;20036;-71
2021/09/21 10:57:58;;;;;;;15.00;5.68;;;22.80;51.20;;;;;;6296165;28;20056;-71
2021/09/21 11:01:00;;;;;;;10.32;5.35;;;22.80;51.00;;;;;;6296703;28;20534;-71
2021/09/21 11:04:00;;;;;;;13.60;5.03;;;22.80;50.40;;;;;;6296384;28;20032;-71
2021/09/21 11:07:01;;;;;;;9.93;5.25;;;22.80;50.30;;;;;;6296246;28;20145;-71
2021/09/21 11:10:01;;;;;;;8.23;4.13;;;22.80;50.40;;;;;;6295807;28;20117;-71
2021/09/21 11:13:08;;;;;;;9.38;4.35;;;22.80;50.50;;;;;;6296643;28;20503;-71
2021/09/21 11:16:12;;;;;;;10.02;4.97;;;22.80;50.60;;;;;;6285365;28;20024;-71
2021/09/21 11:19:13;;;;;;;7.40;4.28;;;22.80;50.70;;;;;;6295961;28;20031;-71
2021/09/21 11:22:16;;;;;;;9.02;4.18;;;22.80;50.80;;;;;;6295933;28;20420;-71
2021/09/21 11:25:17;;;;;;;11.20;4.53;;;22.80;50.90;;;;;;6295585;28;20025;-71
2021/09/21 11:28:18;;;;;;;10.35;3.92;;;22.80;50.90;;;;;;6295640;28;20056;-71
2021/09/21 11:31:20;;;;;;;9.25;4.28;;;22.80;51.00;;;;;;6295635;28;20308;-71
2021/09/21 11:34:23;;;;;;;12.90;4.55;;;22.80;51.10;;;;;;6295952;28;20024;-71
2021/09/21 11:37:25;;;;;;;8.40;4.45;;;22.80;51.00;;;;;;6295375;28;20027;-71
2021/09/21 11:40:34;;;;;;;7.00;3.85;;;22.80;51.10;;;;;;6295192;28;20141;-70
2021/09/21 11:43:35;;;;;;;8.40;4.30;;;22.80;51.20;;;;;;6295269;28;20496;-70
2021/09/21 11:46:35;;;;;;;7.13;3.72;;;22.80;51.30;;;;;;6296046;28;20068;-71
2021/09/21 11:49:36;;;;;;;5.72;3.50;;;22.90;51.40;;;;;;6295565;28;20467;-71
2021/09/21 11:52:37;;;;;;;9.88;4.10;;;22.80;51.30;;;;;;6295215;28;20025;-71
2021/09/21 11:55:39;;;;;;;7.22;3.58;;;22.80;51.40;;;;;;6295521;28;20024;-71
2021/09/21 11:58:40;;;;;;;6.88;3.72;;;22.80;51.50;;;;;;6295389;28;20033;-70
2021/09/21 12:01:40;;;;;;;6.40;3.30;;;22.80;51.60;;;;;;6295247;28;20024;-72
2021/09/21 12:04:46;;;;;;;6.05;3.70;;;22.80;51.50;;;;;;6293925;28;20389;-71
2021/09/21 12:07:47;;;;;;;6.35;3.13;;;22.80;51.60;;;;;;6294982;28;20023;-71
2021/09/21 12:10:54;;;;;;;7.03;3.67;;;22.80;51.70;;;;;;6294927;28;20063;-71
2021/09/21 12:13:57;;;;;;;6.28;3.13;;;22.80;51.80;;;;;;6291247;28;20219;-71
2021/09/21 12:17:02;;;;;;;8.40;3.20;;;22.80;51.70;;;;;;6273260;28;20379;-71
2021/09/21 12:20:02;;;;;;;;;;;22.90;51.80;;;;;;6295186;28;20514;-71
2021/09/21 12:23:06;;;;;;;5.78;3.30;;;22.80;51.70;;;;;;6294688;28;19916;-71
2021/09/21 12:26:08;;;;;;;5.53;3.00;;;22.80;51.70;;;;;;6294876;28;20021;-71
2021/09/21 12:29:08;;;;;;;4.82;3.10;;;22.80;52.40;;;;;;6294399;28;20055;-71
2021/09/21 12:32:09;;;;;;;6.22;3.30;;;22.80;51.80;;;;;;6294026;28;20104;-71
2021/09/21 12:35:11;;;;;;;7.20;3.25;;;22.80;51.90;;;;;;6292659;28;20029;-71
2021/09/21 12:38:19;;;;;;;4.63;2.75;;;22.80;51.90;;;;;;6294167;28;20094;-71
2021/09/21 12:41:20;;;;;;;6.45;3.28;;;22.80;51.90;;;;;;6294174;28;20017;-71
2021/09/21 12:44:22;;;;;;;5.38;3.17;;;22.80;52.00;;;;;;6294526;28;20502;-71
2021/09/21 12:47:23;;;;;;;6.47;2.92;;;22.80;52.00;;;;;;6294470;28;20021;-71
2021/09/21 12:50:24;;;;;;;5.63;3.13;;;22.90;52.20;;;;;;6294466;28;20379;-71
2021/09/21 12:53:25;;;;;;;4.75;2.65;;;22.80;52.10;;;;;;6294986;28;20399;-70
2021/09/21 12:56:26;;;;;;;4.65;2.50;;;22.80;52.10;;;;;;6294242;28;20286;-71
2021/09/21 12:59:29;;;;;;;3.67;2.45;;;22.80;52.10;;;;;;6293992;28;20606;-71
2021/09/21 13:02:30;;;;;;;4.28;2.35;;;22.80;52.10;;;;;;6294026;28;20032;-71
2021/09/21 13:05:32;;;;;;;4.05;2.33;;;22.80;52.30;;;;;;6293897;28;20028;-70
2021/09/21 13:08:33;;;;;;;4.72;2.50;;;22.80;52.30;;;;;;6293882;28;20140;-71
2021/09/21 13:11:34;;;;;;;3.78;2.45;;;22.80;52.30;;;;;;6293648;28;20020;-71
2021/09/21 13:14:36;;;;;;;4.38;2.60;;;22.80;52.20;;;;;;6285189;28;20028;-71
2021/09/21 13:17:37;;;;;;;3.17;2.30;;;22.80;52.40;;;;;;6274254;28;20384;-71
2021/09/21 13:20:38;;;;;;;4.40;2.50;;;22.80;52.30;;;;;;6291271;28;20036;-70
2021/09/21 13:23:38;;;;;;;5.30;2.75;;;22.80;52.30;;;;;;6291795;28;20032;-71
2021/09/21 13:26:39;;;;;;;3.50;2.30;;;22.80;52.30;;;;;;6294145;28;20024;-71
2021/09/21 13:29:42;;;;;;;3.22;2.30;;;22.90;53.20;;;;;;6292779;28;20021;-71
2021/09/21 13:32:43;;;;;;;3.17;2.13;;;22.80;52.40;;;;;;6293847;28;20035;-71
2021/09/21 13:35:44;;;;;;;4.65;2.28;;;22.80;52.40;;;;;;6291900;28;20033;-71
2021/09/21 13:38:45;;;;;;;3.38;2.35;;;22.80;52.40;;;;;;6293363;28;20495;-71
2021/09/21 13:41:45;;;;;;;5.30;2.33;;;22.80;52.40;;;;;;6292897;28;20394;-71
2021/09/21 13:44:46;;;;;;;2.80;2.08;;;22.80;52.40;;;;;;6293417;28;20107;-71
2021/09/21 13:47:46;;;;;;;3.55;2.28;;;22.80;52.50;;;;;;6293267;28;20020;-71
2021/09/21 13:50:47;;;;;;;2.92;1.90;;;22.80;52.50;;;;;;6293199;28;20028;-71
2021/09/21 13:53:47;;;;;;;2.70;1.88;;;22.80;52.50;;;;;;6292791;28;20032;-71
2021/09/21 13:56:48;;;;;;;2.58;1.75;;;22.80;52.50;;;;;;6292959;28;20403;-71
2021/09/21 13:59:48;;;;;;;3.03;2.03;;;22.80;52.50;;;;;;6292720;28;20021;-70
2021/09/21 14:02:50;;;;;;;2.65;1.77;;;22.80;52.50;;;;;;6293017;28;20037;-71
2021/09/21 14:05:50;;;;;;;2.90;2.10;;;22.80;52.60;;;;;;6292281;28;20029;-71
2021/09/21 14:08:51;;;;;;;2.78;1.60;;;22.80;52.50;;;;;;6292900;28;20052;-71
2021/09/21 14:11:52;;;;;;;2.90;1.88;;;22.80;52.60;;;;;;6292628;28;20029;-71
2021/09/21 14:14:53;;;;;;;3.20;1.80;;;22.90;52.60;;;;;;6286724;28;20024;-71
2021/09/21 14:17:53;;;;;;;3.17;2.03;;;22.80;52.60;;;;;;6292730;28;20029;-71
2021/09/21 14:20:55;;;;;;;2.85;1.77;;;22.80;52.70;;;;;;6292943;28;20056;-71
2021/09/21 14:23:56;;;;;;;3.13;1.88;;;22.80;52.70;;;;;;6292402;28;20044;-71
2021/09/21 14:27:00;;;;;;;2.63;1.80;;;22.80;52.70;;;;;;6292324;28;20411;-71
2021/09/21 14:30:03;;;;;;;3.83;1.95;;;22.80;52.80;;;;;;6292208;28;20028;-71
2021/09/21 14:33:04;;;;;;;2.70;1.83;;;22.80;52.80;;;;;;6292742;28;20399;-71
2021/09/21 14:36:05;;;;;;;2.60;1.90;;;22.80;52.80;;;;;;6292420;28;20222;-71
2021/09/21 14:39:06;;;;;;;2.08;1.75;;;22.80;52.80;;;;;;6292589;28;20032;-71
2021/09/21 14:42:07;;;;;;;3.35;1.75;;;22.80;52.90;;;;;;6292015;28;20468;-71
2021/09/21 14:45:09;;;;;;;2.67;1.70;;;22.80;52.80;;;;;;6292411;28;20074;-71
2021/09/21 14:48:10;;;;;;;3.25;1.80;;;22.80;52.90;;;;;;6293266;28;20035;-71
2021/09/21 14:51:10;;;;;;;2.55;1.70;;;22.80;52.80;;;;;;6292250;28;20518;-71
2021/09/21 14:54:11;;;;;;;3.00;1.90;;;22.80;52.90;;;;;;6292493;28;20033;-71
2021/09/21 14:57:12;;;;;;;1.83;1.40;;;22.80;52.80;;;;;;6268855;28;20044;-71
2021/09/21 15:00:17;;;;;;;3.55;1.80;;;22.80;52.90;;;;;;6283060;28;20115;-71
2021/09/21 15:03:17;;;;;;;2.33;1.67;;;22.80;52.90;;;;;;6290857;28;20519;-71
2021/09/21 15:06:18;;;;;;;2.22;1.60;;;22.80;52.90;;;;;;6280699;28;20094;-70
2021/09/21 15:09:18;;;;;;;3.90;1.50;;;22.80;52.90;;;;;;6280984;28;20278;-71
2021/09/21 15:12:20;;;;;;;3.00;1.70;;;22.80;52.90;;;;;;6291880;28;20063;-71
2021/09/21 15:15:20;;;;;;;1.92;1.40;;;22.80;52.90;;;;;;6283382;28;20074;-71
2021/09/21 15:18:21;;;;;;;5.75;1.65;;;22.80;53.00;;;;;;6290671;28;20275;-71
2021/09/21 15:21:21;;;;;;;3.13;1.50;;;22.80;53.00;;;;;;6286156;28;20273;-71
2021/09/21 15:24:22;;;;;;;4.72;1.60;;;22.80;53.00;;;;;;6292638;28;20077;-70
2021/09/21 15:27:22;;;;;;;3.88;1.15;;;22.80;53.00;;;;;;6288790;28;20430;-71
2021/09/21 15:30:23;;;;;;;3.03;1.75;;;22.80;53.10;;;;;;6290898;28;20017;-71
2021/09/21 15:33:24;;;;;;;2.67;1.35;;;22.90;53.30;;;;;;6287877;28;20028;-71
2021/09/21 15:36:24;;;;;;;3.83;1.70;;;22.90;53.30;;;;;;6284772;28;20021;-71
2021/09/21 15:39:25;;;;;;;5.28;1.40;;;22.80;53.20;;;;;;6293452;28;20054;-71
2021/09/21 15:42:27;;;;;;;4.53;1.25;;;22.90;53.40;;;;;;6293652;28;20043;-71
2021/09/21 15:45:28;;;;;;;6.25;1.52;;;22.90;53.30;;;;;;6292867;28;20107;-71
2021/09/21 15:48:28;;;;;;;5.10;1.55;;;22.90;53.40;;;;;;6291454;28;20526;-71
2021/09/21 15:51:29;;;;;;;8.43;1.50;;;22.90;53.40;;;;;;6292074;28;20024;-72
2021/09/21 15:54:33;;;;;;;5.85;1.40;;;22.80;53.30;;;;;;6293130;28;20519;-72
2021/09/21 15:57:35;;;;;;;8.98;1.45;;;22.90;53.40;;;;;;6292679;28;20097;-71